createdAt,value
2018-08-24T00:00:07.988Z,0
2018-08-24T00:00:34.126Z,0
2018-08-24T00:01:00.261Z,0
2018-08-24T00:01:26.396Z,0
2018-08-24T00:01:52.578Z,0
2018-08-24T00:02:18.722Z,0
2018-08-24T00:02:44.883Z,0
2018-08-24T00:03:11.014Z,0
2018-08-24T00:03:37.157Z,0
2018-08-24T00:04:03.321Z,0
2018-08-24T00:04:29.453Z,0
2018-08-24T00:04:55.584Z,0
2018-08-24T00:05:21.754Z,0
2018-08-24T00:05:47.885Z,0
2018-08-24T00:06:14.023Z,0
2018-08-24T00:06:40.155Z,0
2018-08-24T00:07:06.314Z,0
2018-08-24T00:07:32.477Z,0
2018-08-24T00:07:58.620Z,0
2018-08-24T00:08:24.753Z,0
2018-08-24T00:08:50.911Z,0
2018-08-24T00:09:17.050Z,0
2018-08-24T00:09:43.192Z,0
2018-08-24T00:10:09.328Z,0
2018-08-24T00:10:35.466Z,0
2018-08-24T00:11:01.615Z,0
2018-08-24T00:11:27.753Z,0
2018-08-24T00:11:53.915Z,0
2018-08-24T00:12:20.052Z,0
2018-08-24T00:12:46.192Z,0
2018-08-24T00:13:12.350Z,0
2018-08-24T00:13:38.482Z,0
2018-08-24T00:14:04.639Z,0
2018-08-24T00:14:30.774Z,0
2018-08-24T00:14:56.908Z,0
2018-08-24T00:15:23.073Z,0
2018-08-24T00:15:49.222Z,0
2018-08-24T00:16:15.370Z,0
2018-08-24T00:16:41.497Z,0
2018-08-24T00:17:07.657Z,0
2018-08-24T00:17:33.820Z,0
2018-08-24T00:17:59.979Z,0
2018-08-24T00:18:26.112Z,0
2018-08-24T00:18:52.247Z,0
2018-08-24T00:19:18.387Z,0
2018-08-24T00:19:44.519Z,0
2018-08-24T00:20:10.657Z,0
2018-08-24T00:20:36.813Z,0
2018-08-24T00:21:02.945Z,0
2018-08-24T00:21:29.078Z,0
2018-08-24T00:21:55.217Z,0
2018-08-24T00:22:21.382Z,0
2018-08-24T00:22:47.560Z,0
2018-08-24T00:23:13.719Z,0
2018-08-24T00:23:39.856Z,0
2018-08-24T00:24:05.998Z,0
2018-08-24T00:24:32.131Z,0
2018-08-24T00:24:58.265Z,0
2018-08-24T00:25:24.401Z,0
2018-08-24T00:25:50.531Z,0
2018-08-24T00:26:16.674Z,0
2018-08-24T00:26:42.814Z,0
2018-08-24T00:27:08.987Z,0
2018-08-24T00:27:35.081Z,0
2018-08-24T00:28:01.213Z,0
2018-08-24T00:28:27.348Z,0
2018-08-24T00:28:53.482Z,0
2018-08-24T00:29:19.638Z,0
2018-08-24T00:29:45.777Z,0
2018-08-24T00:30:11.959Z,0
2018-08-24T00:30:38.098Z,0
2018-08-24T00:31:04.254Z,0
2018-08-24T00:31:30.386Z,0
2018-08-24T00:31:56.540Z,0
2018-08-24T00:32:22.672Z,0
2018-08-24T00:32:48.812Z,0
2018-08-24T00:33:14.946Z,0
2018-08-24T00:33:41.082Z,0
2018-08-24T00:34:07.222Z,0
2018-08-24T00:34:33.381Z,0
2018-08-24T00:34:59.542Z,0
2018-08-24T00:35:25.703Z,0
2018-08-24T00:35:51.840Z,0
2018-08-24T00:36:17.978Z,0
2018-08-24T00:36:44.114Z,0
2018-08-24T00:37:10.272Z,0
2018-08-24T00:37:36.409Z,0
2018-08-24T00:38:02.548Z,0
2018-08-24T00:38:28.685Z,0
2018-08-24T00:38:54.816Z,0
2018-08-24T00:39:21.008Z,0
2018-08-24T00:39:47.133Z,0
2018-08-24T00:40:13.274Z,0
2018-08-24T00:40:39.415Z,0
2018-08-24T00:41:05.547Z,0
2018-08-24T00:41:31.682Z,0
2018-08-24T00:41:57.816Z,0
2018-08-24T00:42:23.955Z,0
2018-08-24T00:42:50.146Z,0
2018-08-24T00:43:16.267Z,0
2018-08-24T00:43:42.400Z,0
2018-08-24T00:44:08.553Z,0
2018-08-24T00:44:34.696Z,0
2018-08-24T00:45:00.831Z,0
2018-08-24T00:45:26.988Z,0
2018-08-24T00:45:53.127Z,0
2018-08-24T00:46:19.282Z,0
2018-08-24T00:46:45.424Z,0
2018-08-24T00:47:11.576Z,0
2018-08-24T00:47:37.718Z,0
2018-08-24T00:48:03.853Z,0
2018-08-24T00:48:29.991Z,0
2018-08-24T00:48:56.121Z,0
2018-08-24T00:49:22.263Z,0
2018-08-24T00:49:48.400Z,0
2018-08-24T00:50:14.560Z,0
2018-08-24T00:50:40.716Z,0
2018-08-24T00:51:06.862Z,0
2018-08-24T00:51:32.985Z,0
2018-08-24T00:51:59.121Z,0
2018-08-24T00:52:25.276Z,0
2018-08-24T00:52:51.421Z,0
2018-08-24T00:53:17.554Z,0
2018-08-24T00:53:43.696Z,0
2018-08-24T00:54:09.830Z,0
2018-08-24T00:54:35.963Z,0
2018-08-24T00:55:02.124Z,0
2018-08-24T00:55:28.261Z,0
2018-08-24T00:55:54.417Z,0
2018-08-24T00:56:20.547Z,0
2018-08-24T00:56:46.690Z,0
2018-08-24T00:57:12.872Z,0
2018-08-24T00:57:38.998Z,0
2018-08-24T00:58:05.140Z,0
2018-08-24T00:58:31.282Z,0
2018-08-24T00:58:57.413Z,0
2018-08-24T00:59:23.553Z,0
2018-08-24T00:59:49.705Z,0
2018-08-24T01:00:15.844Z,0
2018-08-24T01:00:41.978Z,0
2018-08-24T01:01:08.111Z,0
2018-08-24T01:01:34.255Z,0
2018-08-24T01:02:00.386Z,0
2018-08-24T01:02:26.523Z,0
2018-08-24T01:02:52.649Z,0
2018-08-24T01:03:18.781Z,0
2018-08-24T01:03:44.923Z,0
2018-08-24T01:04:11.081Z,0
2018-08-24T01:04:37.213Z,0
2018-08-24T01:05:03.351Z,0
2018-08-24T01:05:29.507Z,0
2018-08-24T01:05:55.639Z,0
2018-08-24T01:06:21.778Z,0
2018-08-24T01:06:47.914Z,0
2018-08-24T01:07:14.052Z,0
2018-08-24T01:07:40.360Z,0
2018-08-24T01:08:06.369Z,0
2018-08-24T01:08:32.517Z,0
2018-08-24T01:08:58.651Z,0
2018-08-24T01:09:24.829Z,0
2018-08-24T01:09:50.990Z,0
2018-08-24T01:10:17.173Z,0
2018-08-24T01:10:43.309Z,0
2018-08-24T01:11:09.446Z,0
2018-08-24T01:11:35.575Z,0
2018-08-24T01:12:01.709Z,0
2018-08-24T01:12:27.852Z,0
2018-08-24T01:12:53.987Z,0
2018-08-24T01:13:20.122Z,0
2018-08-24T01:13:46.263Z,0
2018-08-24T01:14:12.396Z,0
2018-08-24T01:14:38.530Z,0
2018-08-24T01:15:04.691Z,0
2018-08-24T01:15:30.832Z,0
2018-08-24T01:15:57.005Z,0
2018-08-24T01:16:23.140Z,0
2018-08-24T01:16:49.283Z,0
2018-08-24T01:17:15.455Z,0
2018-08-24T01:17:41.604Z,0
2018-08-24T01:18:07.738Z,0
2018-08-24T01:18:33.873Z,0
2018-08-24T01:19:00.031Z,0
2018-08-24T01:19:26.191Z,0
2018-08-24T01:19:52.347Z,0
2018-08-24T01:20:18.483Z,0
2018-08-24T01:20:44.617Z,0
2018-08-24T01:21:10.777Z,0
2018-08-24T01:21:36.916Z,0
2018-08-24T01:22:03.076Z,0
2018-08-24T01:22:29.202Z,0
2018-08-24T01:22:55.384Z,0
2018-08-24T01:23:21.527Z,0
2018-08-24T01:23:47.678Z,0
2018-08-24T01:24:13.813Z,0
2018-08-24T01:24:39.954Z,0
2018-08-24T01:25:06.090Z,0
2018-08-24T01:25:32.224Z,0
2018-08-24T01:25:58.375Z,0
2018-08-24T01:26:24.522Z,0
2018-08-24T01:26:50.652Z,0
2018-08-24T01:27:16.792Z,0
2018-08-24T01:27:42.931Z,0
2018-08-24T01:28:09.063Z,0
2018-08-24T01:28:35.198Z,0
2018-08-24T01:29:01.335Z,0
2018-08-24T01:29:27.464Z,0
2018-08-24T01:29:53.629Z,0
2018-08-24T01:30:19.768Z,0
2018-08-24T01:30:45.900Z,0
2018-08-24T01:31:12.032Z,0
2018-08-24T01:31:38.191Z,0
2018-08-24T01:32:04.358Z,0
2018-08-24T01:32:30.491Z,0
2018-08-24T01:32:56.655Z,0
2018-08-24T01:33:22.783Z,0
2018-08-24T01:33:48.918Z,0
2018-08-24T01:34:15.059Z,0
2018-08-24T01:34:41.198Z,0
2018-08-24T01:35:07.332Z,0
2018-08-24T01:35:33.546Z,0
2018-08-24T01:35:59.731Z,0
2018-08-24T01:36:25.878Z,0
2018-08-24T01:36:52.018Z,0
2018-08-24T01:37:18.171Z,0
2018-08-24T01:37:44.296Z,0
2018-08-24T01:38:10.438Z,0
2018-08-24T01:38:36.568Z,0
2018-08-24T01:39:02.703Z,0
2018-08-24T01:39:28.867Z,0
2018-08-24T01:39:55.003Z,0
2018-08-24T01:40:21.141Z,0
2018-08-24T01:40:47.274Z,0
2018-08-24T01:41:13.405Z,0
2018-08-24T01:41:39.539Z,0
2018-08-24T01:42:05.678Z,0
2018-08-24T01:42:31.820Z,0
2018-08-24T01:42:57.949Z,0
2018-08-24T01:43:24.094Z,0
2018-08-24T01:43:50.234Z,0
2018-08-24T01:44:16.373Z,0
2018-08-24T01:44:42.512Z,0
2018-08-24T01:45:08.647Z,0
2018-08-24T01:45:34.776Z,0
2018-08-24T01:46:00.915Z,0
2018-08-24T01:46:27.046Z,0
2018-08-24T01:46:53.188Z,0
2018-08-24T01:47:19.324Z,0
2018-08-24T01:47:45.454Z,0
2018-08-24T01:48:11.595Z,0
2018-08-24T01:48:37.725Z,0
2018-08-24T01:49:03.867Z,0
2018-08-24T01:49:30.007Z,0
2018-08-24T01:49:56.136Z,0
2018-08-24T01:50:22.271Z,0
2018-08-24T01:50:48.441Z,0
2018-08-24T01:51:14.571Z,0
2018-08-24T01:51:40.710Z,0
2018-08-24T01:52:06.864Z,0
2018-08-24T01:52:32.997Z,0
2018-08-24T01:52:59.161Z,0
2018-08-24T01:53:25.291Z,0
2018-08-24T01:53:51.436Z,0
2018-08-24T01:54:17.564Z,0
2018-08-24T01:54:43.705Z,0
2018-08-24T01:55:09.831Z,0
2018-08-24T01:55:35.965Z,0
2018-08-24T01:56:02.103Z,0
2018-08-24T01:56:28.239Z,0
2018-08-24T01:56:54.400Z,0
2018-08-24T01:57:20.539Z,0
2018-08-24T01:57:46.667Z,0
2018-08-24T01:58:12.824Z,0
2018-08-24T01:58:38.967Z,0
2018-08-24T01:59:05.160Z,0
2018-08-24T01:59:31.274Z,0
2018-08-24T01:59:57.408Z,0
2018-08-24T02:00:23.547Z,0
2018-08-24T02:00:49.684Z,0
2018-08-24T02:01:15.816Z,0
2018-08-24T02:01:41.979Z,0
2018-08-24T02:02:08.115Z,0
2018-08-24T02:02:34.256Z,0
2018-08-24T02:03:00.391Z,0
2018-08-24T02:03:26.552Z,0
2018-08-24T02:03:52.687Z,0
2018-08-24T02:04:18.823Z,0
2018-08-24T02:04:44.955Z,0
2018-08-24T02:05:11.091Z,0
2018-08-24T02:05:37.230Z,0
2018-08-24T02:06:03.367Z,0
2018-08-24T02:06:29.524Z,0
2018-08-24T02:06:55.668Z,0
2018-08-24T02:07:21.797Z,0
2018-08-24T02:07:47.930Z,0
2018-08-24T02:08:14.065Z,0
2018-08-24T02:08:40.209Z,0
2018-08-24T02:09:06.335Z,0
2018-08-24T02:09:32.468Z,0
2018-08-24T02:09:58.630Z,0
2018-08-24T02:10:24.766Z,0
2018-08-24T02:10:50.897Z,0
2018-08-24T02:11:17.038Z,0
2018-08-24T02:11:43.175Z,0
2018-08-24T02:12:09.306Z,0
2018-08-24T02:12:35.445Z,0
2018-08-24T02:13:01.584Z,0
2018-08-24T02:13:27.761Z,0
2018-08-24T02:13:53.902Z,0
2018-08-24T02:14:20.062Z,0
2018-08-24T02:14:46.181Z,0
2018-08-24T02:15:12.317Z,0
2018-08-24T02:15:38.448Z,0
2018-08-24T02:16:04.585Z,0
2018-08-24T02:16:30.720Z,0
2018-08-24T02:16:56.856Z,0
2018-08-24T02:17:22.988Z,0
2018-08-24T02:17:49.121Z,0
2018-08-24T02:18:15.258Z,0
2018-08-24T02:18:41.395Z,0
2018-08-24T02:19:07.541Z,0
2018-08-24T02:19:33.683Z,0
2018-08-24T02:19:59.837Z,0
2018-08-24T02:20:25.984Z,0
2018-08-24T02:20:52.163Z,0
2018-08-24T02:21:18.295Z,0
2018-08-24T02:21:44.445Z,0
2018-08-24T02:22:10.580Z,0
2018-08-24T02:22:36.723Z,0
2018-08-24T02:23:02.852Z,0
2018-08-24T02:23:28.990Z,0
2018-08-24T02:23:55.125Z,0
2018-08-24T02:24:21.280Z,0
2018-08-24T02:24:47.414Z,0
2018-08-24T02:25:13.575Z,0
2018-08-24T02:25:39.712Z,0
2018-08-24T02:26:05.854Z,0
2018-08-24T02:26:32.004Z,0
2018-08-24T02:26:58.142Z,0
2018-08-24T02:27:24.285Z,0
2018-08-24T02:27:50.425Z,0
2018-08-24T02:28:16.554Z,0
2018-08-24T02:28:42.695Z,0
2018-08-24T02:29:08.829Z,0
2018-08-24T02:29:34.965Z,0
2018-08-24T02:30:01.102Z,0
2018-08-24T02:30:27.290Z,0
2018-08-24T02:30:53.449Z,0
2018-08-24T02:31:19.697Z,0
2018-08-24T02:31:45.767Z,0
2018-08-24T02:32:11.910Z,0
2018-08-24T02:32:38.069Z,0
2018-08-24T02:33:04.197Z,0
2018-08-24T02:33:30.339Z,0
2018-08-24T02:33:56.478Z,0
2018-08-24T02:34:22.656Z,0
2018-08-24T02:34:48.789Z,0
2018-08-24T02:35:14.917Z,0
2018-08-24T02:35:41.056Z,0
2018-08-24T02:36:07.187Z,0
2018-08-24T02:36:33.318Z,0
2018-08-24T02:36:59.454Z,0
2018-08-24T02:37:25.583Z,0
2018-08-24T02:37:51.720Z,0
2018-08-24T02:38:17.887Z,0
2018-08-24T02:38:44.073Z,0
2018-08-24T02:39:10.205Z,0
2018-08-24T02:39:36.342Z,0
2018-08-24T02:40:02.509Z,0
2018-08-24T02:40:28.658Z,0
2018-08-24T02:40:54.818Z,0
2018-08-24T02:41:20.956Z,0
2018-08-24T02:41:47.096Z,0
2018-08-24T02:42:13.230Z,0
2018-08-24T02:42:39.384Z,0
2018-08-24T02:43:05.550Z,0
2018-08-24T02:43:31.702Z,0
2018-08-24T02:43:57.835Z,0
2018-08-24T02:44:23.972Z,0
2018-08-24T02:44:50.108Z,0
2018-08-24T02:45:16.286Z,0
2018-08-24T02:45:42.417Z,0
2018-08-24T02:46:08.548Z,0
2018-08-24T02:46:34.686Z,0
2018-08-24T02:47:00.813Z,0
2018-08-24T02:47:27.023Z,0
2018-08-24T02:47:53.159Z,0
2018-08-24T02:48:19.297Z,0
2018-08-24T02:48:45.426Z,0
2018-08-24T02:49:11.567Z,0
2018-08-24T02:49:37.704Z,0
2018-08-24T02:50:03.860Z,0
2018-08-24T02:50:29.992Z,0
2018-08-24T02:50:56.128Z,0
2018-08-24T02:51:22.289Z,0
2018-08-24T02:51:48.429Z,0
2018-08-24T02:52:14.564Z,0
2018-08-24T02:52:40.745Z,0
2018-08-24T02:53:06.879Z,0
2018-08-24T02:53:33.038Z,0
2018-08-24T02:53:59.176Z,0
2018-08-24T02:54:25.317Z,0
2018-08-24T02:54:51.965Z,0
2018-08-24T02:55:18.047Z,0
2018-08-24T02:55:44.182Z,0
2018-08-24T02:56:10.315Z,0
2018-08-24T02:56:36.454Z,0
2018-08-24T02:57:02.594Z,0
2018-08-24T02:57:28.731Z,0
2018-08-24T02:57:54.869Z,0
2018-08-24T02:58:21.018Z,0
2018-08-24T02:58:47.179Z,0
2018-08-24T02:59:13.342Z,0
2018-08-24T02:59:39.473Z,0
2018-08-24T03:00:05.611Z,0
2018-08-24T03:00:31.749Z,0
2018-08-24T03:00:57.883Z,0
2018-08-24T03:01:24.018Z,0
2018-08-24T03:01:50.170Z,0
2018-08-24T03:02:16.304Z,0
2018-08-24T03:02:42.510Z,0
2018-08-24T03:03:08.637Z,0
2018-08-24T03:03:34.775Z,0
2018-08-24T03:04:00.901Z,0
2018-08-24T03:04:27.035Z,0
2018-08-24T03:04:53.176Z,0
2018-08-24T03:05:19.393Z,0
2018-08-24T03:05:45.479Z,0
2018-08-24T03:06:11.630Z,0
2018-08-24T03:06:37.776Z,0
2018-08-24T03:07:03.919Z,0
2018-08-24T03:07:30.062Z,0
2018-08-24T03:07:56.242Z,0
2018-08-24T03:08:22.476Z,0
2018-08-24T03:08:48.538Z,0
2018-08-24T03:09:14.675Z,0
2018-08-24T03:09:40.815Z,0
2018-08-24T03:10:06.970Z,0
2018-08-24T03:10:33.101Z,0
2018-08-24T03:10:59.243Z,0
2018-08-24T03:11:25.366Z,0
2018-08-24T03:11:51.509Z,0
2018-08-24T03:12:17.666Z,0
2018-08-24T03:12:43.827Z,0
2018-08-24T03:13:09.964Z,0
2018-08-24T03:13:36.095Z,0
2018-08-24T03:14:02.250Z,0
2018-08-24T03:14:28.413Z,0
2018-08-24T03:14:54.542Z,0
2018-08-24T03:15:20.678Z,0
2018-08-24T03:15:46.834Z,0
2018-08-24T03:16:12.991Z,0
2018-08-24T03:16:39.118Z,0
2018-08-24T03:17:05.277Z,0
2018-08-24T03:17:31.437Z,0
2018-08-24T03:17:57.575Z,0
2018-08-24T03:18:23.731Z,0
2018-08-24T03:18:49.892Z,0
2018-08-24T03:19:16.047Z,0
2018-08-24T03:19:42.182Z,0
2018-08-24T03:20:08.365Z,0
2018-08-24T03:20:34.499Z,0
2018-08-24T03:21:00.637Z,0
2018-08-24T03:21:26.797Z,0
2018-08-24T03:21:52.976Z,0
2018-08-24T03:22:19.143Z,0
2018-08-24T03:22:45.300Z,0
2018-08-24T03:23:11.432Z,0
2018-08-24T03:23:37.570Z,0
2018-08-24T03:24:03.718Z,0
2018-08-24T03:24:29.863Z,0
2018-08-24T03:24:55.997Z,0
2018-08-24T03:25:22.127Z,0
2018-08-24T03:25:48.268Z,0
2018-08-24T03:26:14.410Z,0
2018-08-24T03:26:40.543Z,0
2018-08-24T03:27:06.678Z,0
2018-08-24T03:27:32.815Z,0
2018-08-24T03:27:58.952Z,0
2018-08-24T03:28:25.108Z,0
2018-08-24T03:28:51.235Z,0
2018-08-24T03:29:17.370Z,0
2018-08-24T03:29:43.524Z,0
2018-08-24T03:30:09.685Z,0
2018-08-24T03:30:35.885Z,0
2018-08-24T03:31:02.050Z,0
2018-08-24T03:31:28.205Z,0
2018-08-24T03:31:54.352Z,0
2018-08-24T03:32:20.503Z,0
2018-08-24T03:32:46.667Z,0
2018-08-24T03:33:12.797Z,0
2018-08-24T03:33:38.961Z,0
2018-08-24T03:34:05.117Z,0
2018-08-24T03:34:31.254Z,0
2018-08-24T03:34:57.434Z,0
2018-08-24T03:35:23.633Z,0
2018-08-24T03:35:49.797Z,0
2018-08-24T03:36:15.938Z,0
2018-08-24T03:36:42.074Z,0
2018-08-24T03:37:08.229Z,0
2018-08-24T03:37:34.364Z,0
2018-08-24T03:38:00.499Z,0
2018-08-24T03:38:26.660Z,0
2018-08-24T03:38:52.799Z,0
2018-08-24T03:39:18.973Z,0
2018-08-24T03:39:45.109Z,0
2018-08-24T03:40:11.239Z,0
2018-08-24T03:40:37.377Z,0
2018-08-24T03:41:03.525Z,0
2018-08-24T03:41:29.674Z,0
2018-08-24T03:41:55.809Z,0
2018-08-24T03:42:21.949Z,0
2018-08-24T03:42:48.083Z,0
2018-08-24T03:43:14.264Z,0
2018-08-24T03:43:40.417Z,0
2018-08-24T03:44:06.570Z,0
2018-08-24T03:44:32.736Z,0
2018-08-24T03:44:58.892Z,0
2018-08-24T03:45:25.059Z,0
2018-08-24T03:45:51.331Z,0
2018-08-24T03:46:17.347Z,0
2018-08-24T03:46:43.488Z,0
2018-08-24T03:47:09.629Z,0
2018-08-24T03:47:35.782Z,0
2018-08-24T03:48:01.942Z,0
2018-08-24T03:48:28.125Z,0
2018-08-24T03:48:54.307Z,0
2018-08-24T03:49:20.445Z,0
2018-08-24T03:49:46.575Z,0
2018-08-24T03:50:12.716Z,0
2018-08-24T03:50:38.842Z,0
2018-08-24T03:51:04.983Z,0
2018-08-24T03:51:31.119Z,0
2018-08-24T03:51:57.255Z,0
2018-08-24T03:52:23.412Z,0
2018-08-24T03:52:49.639Z,0
2018-08-24T03:53:15.744Z,0
2018-08-24T03:53:41.852Z,0
2018-08-24T03:54:07.980Z,0
2018-08-24T03:54:34.123Z,0
2018-08-24T03:55:00.264Z,0
2018-08-24T03:55:26.447Z,4
2018-08-24T03:55:52.628Z,4
2018-08-24T03:56:18.765Z,4
2018-08-24T03:56:44.898Z,4
2018-08-24T03:57:11.034Z,4
2018-08-24T03:57:37.197Z,0
2018-08-24T03:58:03.348Z,4
2018-08-24T03:58:29.510Z,4
2018-08-24T03:58:55.640Z,4
2018-08-24T03:59:21.778Z,4
2018-08-24T03:59:47.909Z,4
2018-08-24T04:00:14.041Z,4
2018-08-24T04:00:40.193Z,4
2018-08-24T04:01:06.320Z,4
2018-08-24T04:01:32.458Z,4
2018-08-24T04:01:58.601Z,4
2018-08-24T04:02:24.729Z,4
2018-08-24T04:02:50.865Z,4
2018-08-24T04:03:17.007Z,8
2018-08-24T04:03:43.150Z,4
2018-08-24T04:04:09.289Z,8
2018-08-24T04:04:35.449Z,8
2018-08-24T04:05:01.584Z,8
2018-08-24T04:05:27.742Z,12
2018-08-24T04:05:53.877Z,12
2018-08-24T04:06:20.008Z,12
2018-08-24T04:06:46.164Z,16
2018-08-24T04:07:12.296Z,16
2018-08-24T04:07:38.435Z,20
2018-08-24T04:08:04.569Z,16
2018-08-24T04:08:30.700Z,20
2018-08-24T04:08:56.843Z,20
2018-08-24T04:09:23.032Z,24
2018-08-24T04:09:49.132Z,24
2018-08-24T04:10:15.295Z,24
2018-08-24T04:10:41.437Z,28
2018-08-24T04:11:07.613Z,28
2018-08-24T04:11:33.770Z,32
2018-08-24T04:11:59.907Z,32
2018-08-24T04:12:26.059Z,36
2018-08-24T04:12:52.327Z,36
2018-08-24T04:13:18.401Z,40
2018-08-24T04:13:44.539Z,40
2018-08-24T04:14:10.697Z,40
2018-08-24T04:14:36.843Z,40
2018-08-24T04:15:03.008Z,44
2018-08-24T04:15:29.136Z,44
2018-08-24T04:15:55.286Z,48
2018-08-24T04:16:21.417Z,48
2018-08-24T04:16:47.554Z,48
2018-08-24T04:17:13.706Z,56
2018-08-24T04:17:39.869Z,56
2018-08-24T04:18:06.001Z,60
2018-08-24T04:18:32.165Z,64
2018-08-24T04:18:58.347Z,68
2018-08-24T04:19:24.557Z,72
2018-08-24T04:19:50.646Z,76
2018-08-24T04:20:16.785Z,80
2018-08-24T04:20:42.940Z,76
2018-08-24T04:21:09.126Z,68
2018-08-24T04:21:35.251Z,68
2018-08-24T04:22:01.390Z,72
2018-08-24T04:22:27.526Z,72
2018-08-24T04:22:53.662Z,76
2018-08-24T04:23:19.815Z,72
2018-08-24T04:23:45.975Z,76
2018-08-24T04:24:12.135Z,72
2018-08-24T04:24:38.271Z,60
2018-08-24T04:25:04.406Z,52
2018-08-24T04:25:30.602Z,52
2018-08-24T04:25:56.792Z,52
2018-08-24T04:26:22.927Z,60
2018-08-24T04:26:49.059Z,68
2018-08-24T04:27:15.194Z,72
2018-08-24T04:27:41.334Z,84
2018-08-24T04:28:07.499Z,92
2018-08-24T04:28:33.633Z,104
2018-08-24T04:28:59.785Z,108
2018-08-24T04:29:25.947Z,108
2018-08-24T04:29:52.101Z,108
2018-08-24T04:30:18.304Z,108
2018-08-24T04:30:44.449Z,108
2018-08-24T04:31:10.652Z,120
2018-08-24T04:31:36.777Z,140
2018-08-24T04:32:02.939Z,160
2018-08-24T04:32:29.092Z,180
2018-08-24T04:32:55.231Z,180
2018-08-24T04:33:21.395Z,184
2018-08-24T04:33:47.533Z,204
2018-08-24T04:34:13.670Z,244
2018-08-24T04:34:39.803Z,308
2018-08-24T04:35:06.041Z,372
2018-08-24T04:35:32.167Z,420
2018-08-24T04:35:58.317Z,480
2018-08-24T04:36:24.478Z,544
2018-08-24T04:36:50.625Z,592
2018-08-24T04:37:16.780Z,628
2018-08-24T04:37:42.905Z,644
2018-08-24T04:38:09.065Z,624
2018-08-24T04:38:35.207Z,584
2018-08-24T04:39:01.340Z,552
2018-08-24T04:39:27.493Z,564
2018-08-24T04:39:53.660Z,608
2018-08-24T04:40:19.914Z,652
2018-08-24T04:40:46.024Z,708
2018-08-24T04:41:12.201Z,808
2018-08-24T04:41:38.334Z,888
2018-08-24T04:42:04.475Z,932
2018-08-24T04:42:30.609Z,960
2018-08-24T04:42:56.745Z,980
2018-08-24T04:43:22.881Z,1004
2018-08-24T04:43:49.033Z,1028
2018-08-24T04:44:15.199Z,1052
2018-08-24T04:44:41.331Z,1076
2018-08-24T04:45:07.473Z,1092
2018-08-24T04:45:33.678Z,1112
2018-08-24T04:45:59.770Z,1132
2018-08-24T04:46:25.924Z,1156
2018-08-24T04:46:52.082Z,1168
2018-08-24T04:47:18.278Z,1184
2018-08-24T04:47:44.420Z,1196
2018-08-24T04:48:10.565Z,1204
2018-08-24T04:48:36.701Z,1220
2018-08-24T04:49:02.856Z,1228
2018-08-24T04:49:28.988Z,1236
2018-08-24T04:49:55.128Z,1244
2018-08-24T04:50:21.264Z,1248
2018-08-24T04:50:47.417Z,1252
2018-08-24T04:51:13.567Z,1252
2018-08-24T04:51:39.690Z,1252
2018-08-24T04:52:05.843Z,1252
2018-08-24T04:52:31.971Z,1252
2018-08-24T04:52:58.117Z,1252
2018-08-24T04:53:24.249Z,1248
2018-08-24T04:53:50.387Z,1248
2018-08-24T04:54:16.528Z,1244
2018-08-24T04:54:42.653Z,1248
2018-08-24T04:55:08.833Z,1252
2018-08-24T04:55:35.016Z,1256
2018-08-24T04:56:01.179Z,1260
2018-08-24T04:56:27.331Z,1268
2018-08-24T04:56:53.469Z,1276
2018-08-24T04:57:19.606Z,1284
2018-08-24T04:57:45.736Z,1292
2018-08-24T04:58:11.913Z,1296
2018-08-24T04:58:38.028Z,1288
2018-08-24T04:59:04.208Z,1276
2018-08-24T04:59:30.348Z,1256
2018-08-24T04:59:56.481Z,1224
2018-08-24T05:00:22.639Z,1224
2018-08-24T05:00:48.796Z,1264
2018-08-24T05:01:14.929Z,1320
2018-08-24T05:01:41.060Z,1360
2018-08-24T05:02:07.203Z,1384
2018-08-24T05:02:33.383Z,1396
2018-08-24T05:02:59.526Z,1408
2018-08-24T05:03:25.677Z,1424
2018-08-24T05:03:51.844Z,1436
2018-08-24T05:04:17.997Z,1444
2018-08-24T05:04:44.158Z,1444
2018-08-24T05:05:10.293Z,1452
2018-08-24T05:05:36.459Z,1464
2018-08-24T05:06:02.574Z,1472
2018-08-24T05:06:28.713Z,1480
2018-08-24T05:06:54.849Z,1500
2018-08-24T05:07:20.989Z,1524
2018-08-24T05:07:47.145Z,1544
2018-08-24T05:08:13.284Z,1568
2018-08-24T05:08:39.410Z,1596
2018-08-24T05:09:05.550Z,1616
2018-08-24T05:09:31.731Z,1648
2018-08-24T05:09:57.871Z,1688
2018-08-24T05:10:24.006Z,1716
2018-08-24T05:10:50.171Z,1744
2018-08-24T05:11:16.327Z,1768
2018-08-24T05:11:42.459Z,1792
2018-08-24T05:12:08.595Z,1824
2018-08-24T05:12:34.728Z,1860
2018-08-24T05:13:00.860Z,1892
2018-08-24T05:13:27.018Z,1912
2018-08-24T05:13:53.158Z,1932
2018-08-24T05:14:19.283Z,1960
2018-08-24T05:14:45.426Z,1992
2018-08-24T05:15:11.646Z,2020
2018-08-24T05:15:37.810Z,2052
2018-08-24T05:16:03.964Z,2084
2018-08-24T05:16:30.099Z,2120
2018-08-24T05:16:56.230Z,2156
2018-08-24T05:17:22.370Z,2184
2018-08-24T05:17:48.504Z,2212
2018-08-24T05:18:14.663Z,2236
2018-08-24T05:18:40.807Z,2268
2018-08-24T05:19:06.964Z,2292
2018-08-24T05:19:33.092Z,2316
2018-08-24T05:19:59.251Z,2348
2018-08-24T05:20:25.389Z,2372
2018-08-24T05:20:51.522Z,2392
2018-08-24T05:21:17.711Z,2408
2018-08-24T05:21:43.785Z,2420
2018-08-24T05:22:09.972Z,2436
2018-08-24T05:22:36.125Z,2444
2018-08-24T05:23:02.262Z,2448
2018-08-24T05:23:28.398Z,2452
2018-08-24T05:23:54.534Z,2448
2018-08-24T05:24:20.667Z,2428
2018-08-24T05:24:46.912Z,2400
2018-08-24T05:25:13.008Z,2376
2018-08-24T05:25:39.142Z,2348
2018-08-24T05:26:05.307Z,2324
2018-08-24T05:26:31.432Z,2296
2018-08-24T05:26:57.565Z,2272
2018-08-24T05:27:23.711Z,2252
2018-08-24T05:27:49.858Z,2232
2018-08-24T05:28:16.119Z,2224
2018-08-24T05:28:42.150Z,2220
2018-08-24T05:29:08.307Z,2220
2018-08-24T05:29:34.446Z,2232
2018-08-24T05:30:00.597Z,2256
2018-08-24T05:30:26.736Z,2280
2018-08-24T05:30:52.883Z,2320
2018-08-24T05:31:19.046Z,2356
2018-08-24T05:31:45.204Z,2400
2018-08-24T05:32:11.376Z,2452
2018-08-24T05:32:37.529Z,2500
2018-08-24T05:33:03.668Z,2556
2018-08-24T05:33:29.804Z,2612
2018-08-24T05:33:55.937Z,2668
2018-08-24T05:34:22.091Z,2720
2018-08-24T05:34:48.224Z,2776
2018-08-24T05:35:14.365Z,2824
2018-08-24T05:35:40.579Z,2864
2018-08-24T05:36:06.663Z,2904
2018-08-24T05:36:32.795Z,2952
2018-08-24T05:36:58.934Z,2980
2018-08-24T05:37:25.064Z,3008
2018-08-24T05:37:51.197Z,3040
2018-08-24T05:38:17.334Z,3060
2018-08-24T05:38:43.468Z,3076
2018-08-24T05:39:09.644Z,3092
2018-08-24T05:39:35.774Z,3096
2018-08-24T05:40:01.961Z,3112
2018-08-24T05:40:28.096Z,3148
2018-08-24T05:40:54.233Z,3180
2018-08-24T05:41:20.426Z,3208
2018-08-24T05:41:46.562Z,3244
2018-08-24T05:42:12.730Z,3284
2018-08-24T05:42:38.859Z,3332
2018-08-24T05:43:04.990Z,3376
2018-08-24T05:43:31.130Z,3424
2018-08-24T05:43:57.263Z,3464
2018-08-24T05:44:23.400Z,3504
2018-08-24T05:44:49.567Z,3540
2018-08-24T05:45:15.722Z,3576
2018-08-24T05:45:41.862Z,3596
2018-08-24T05:46:07.992Z,3608
2018-08-24T05:46:34.131Z,3604
2018-08-24T05:47:00.265Z,3596
2018-08-24T05:47:26.400Z,3584
2018-08-24T05:47:52.570Z,3580
2018-08-24T05:48:18.709Z,3580
2018-08-24T05:48:44.887Z,3584
2018-08-24T05:49:11.016Z,3600
2018-08-24T05:49:37.179Z,3620
2018-08-24T05:50:03.337Z,3648
2018-08-24T05:50:29.499Z,3684
2018-08-24T05:50:55.640Z,3720
2018-08-24T05:51:21.769Z,3756
2018-08-24T05:51:47.921Z,3788
2018-08-24T05:52:14.061Z,3816
2018-08-24T05:52:40.194Z,3844
2018-08-24T05:53:06.329Z,3860
2018-08-24T05:53:32.465Z,3888
2018-08-24T05:53:58.604Z,3900
2018-08-24T05:54:24.783Z,3900
2018-08-24T05:54:50.964Z,3900
2018-08-24T05:55:17.121Z,3892
2018-08-24T05:55:43.335Z,3872
2018-08-24T05:56:09.457Z,3852
2018-08-24T05:56:35.614Z,3824
2018-08-24T05:57:01.746Z,3796
2018-08-24T05:57:27.882Z,3776
2018-08-24T05:57:54.047Z,3756
2018-08-24T05:58:20.188Z,3744
2018-08-24T05:58:46.340Z,3732
2018-08-24T05:59:12.528Z,3724
2018-08-24T05:59:38.684Z,3720
2018-08-24T06:00:04.833Z,3716
2018-08-24T06:00:30.970Z,3720
2018-08-24T06:00:57.104Z,3740
2018-08-24T06:01:23.244Z,3764
2018-08-24T06:01:49.407Z,3792
2018-08-24T06:02:15.580Z,3820
2018-08-24T06:02:41.726Z,3856
2018-08-24T06:03:07.854Z,3884
2018-08-24T06:03:34.006Z,3912
2018-08-24T06:04:00.165Z,3936
2018-08-24T06:04:26.366Z,3960
2018-08-24T06:04:52.494Z,3976
2018-08-24T06:05:18.638Z,3988
2018-08-24T06:05:44.828Z,4016
2018-08-24T06:06:10.971Z,4056
2018-08-24T06:06:37.104Z,4116
2018-08-24T06:07:03.244Z,4212
2018-08-24T06:07:29.374Z,4348
2018-08-24T06:07:55.514Z,4520
2018-08-24T06:08:21.654Z,4720
2018-08-24T06:08:47.788Z,4944
2018-08-24T06:09:13.931Z,5180
2018-08-24T06:09:40.061Z,5412
2018-08-24T06:10:06.202Z,5636
2018-08-24T06:10:32.333Z,5836
2018-08-24T06:10:58.470Z,6008
2018-08-24T06:11:24.607Z,6160
2018-08-24T06:11:50.764Z,6292
2018-08-24T06:12:16.923Z,6400
2018-08-24T06:12:43.060Z,6492
2018-08-24T06:13:09.216Z,6588
2018-08-24T06:13:35.353Z,6684
2018-08-24T06:14:01.487Z,6772
2018-08-24T06:14:27.642Z,6856